^^
Station Historical Data
Daily Summary for January 10, 2017 Units:  English    Metric   Both
« Previous Day
Next Day »
Daily Weekly Monthly Yearly Custom
  High: Low: Average:
Temperature: 35.6 °F 13.5 °F 24.7 °F
Dew Point: 27.1 °F 6.8 °F 14.6 °F
Humidity: 82 % 46 % 66 %
Wind Speed: 8.9 mph 0.0 mph 1.7 mph
Wind Gust: 13.8 mph - -
Wind:- - South
Pressure: 30.66 in 30.19 in -
Precipitation: 0.03 in    
Historical Graphs
 
 
Tabular Data for January 10, 2017
Time Temperature Dew Point Pressure Wind Wind Speed Wind Gust Humidity Rainfall Rate (Hourly) solar Conditions
00:04 13.6 °F 6.8 °F 30.66 in Calm     74 % 0.00 in 0.0 W/m2 CLR
00:09 13.6 °F 6.8 °F 30.65 in Calm     74 % 0.00 in 0.0 W/m2 CLR
00:14 13.7 °F 7.2 °F 30.65 in Calm     75 % 0.00 in 0.0 W/m2 CLR
00:19 13.7 °F 7.2 °F 30.65 in Calm     75 % 0.00 in 0.0 W/m2 CLR
00:24 13.8 °F 7.3 °F 30.65 in Calm     75 % 0.00 in 0.0 W/m2 CLR
00:29 13.7 °F 7.2 °F 30.64 in Calm     75 % 0.00 in 0.0 W/m2 CLR
00:34 13.6 °F 7.1 °F 30.64 in Calm     75 % 0.00 in 0.0 W/m2 CLR
00:39 13.5 °F 7.0 °F 30.64 in Calm     75 % 0.00 in 0.0 W/m2 CLR
00:44 13.7 °F 7.5 °F 30.64 in Calm     76 % 0.00 in 0.0 W/m2 CLR
00:49 13.8 °F 7.6 °F 30.64 in Calm     76 % 0.00 in 0.0 W/m2 CLR
00:54 13.9 °F 7.7 °F 30.64 in Calm     76 % 0.00 in 0.0 W/m2 CLR
00:59 14.1 °F 7.9 °F 30.64 in Calm     76 % 0.00 in 0.0 W/m2 CLR
01:04 14.0 °F 7.8 °F 30.63 in Calm     76 % 0.00 in 0.0 W/m2 CLR
01:09 14.0 °F 7.8 °F 30.63 in Calm     76 % 0.00 in 0.0 W/m2 CLR
01:14 14.0 °F 8.1 °F 30.63 in Calm     77 % 0.00 in 0.0 W/m2 CLR
01:20 14.2 °F 8.3 °F 30.64 in Calm     77 % 0.00 in 0.0 W/m2 CLR
01:25 14.3 °F 8.4 °F 30.64 in Calm     77 % 0.00 in 0.0 W/m2 CLR
01:30 14.4 °F 8.5 °F 30.64 in Calm     77 % 0.00 in 0.0 W/m2 CLR
01:35 14.5 °F 8.6 °F 30.64 in Calm     77 % 0.00 in 0.0 W/m2 CLR
01:40 14.7 °F 8.8 °F 30.64 in Calm     77 % 0.00 in 0.0 W/m2 CLR
01:45 14.6 °F 8.7 °F 30.64 in Calm     77 % 0.00 in 0.0 W/m2 CLR
01:50 14.7 °F 9.1 °F 30.63 in Calm     78 % 0.00 in 0.0 W/m2 CLR
01:55 14.8 °F 8.9 °F 30.63 in Calm     77 % 0.00 in 0.0 W/m2 CLR
02:00 14.9 °F 9.3 °F 30.63 in Calm     78 % 0.00 in 0.0 W/m2 CLR
02:05 15.5 °F 9.9 °F 30.63 in Calm     78 % 0.00 in 0.0 W/m2 CLR
02:10 16.0 °F 10.1 °F 30.62 in Calm     77 % 0.00 in 0.0 W/m2 CLR
02:15 16.2 °F 10.0 °F 30.63 in Calm     76 % 0.00 in 0.0 W/m2 CLR
02:25 16.1 °F 9.6 °F 30.63 in Calm     75 % 0.00 in 0.0 W/m2 CLR
02:30 15.9 °F 9.7 °F 30.63 in Calm     76 % 0.00 in 0.0 W/m2 CLR
02:35 15.6 °F 9.4 °F 30.63 in Calm     76 % 0.00 in 0.0 W/m2 CLR
02:40 15.7 °F 9.5 °F 30.64 in Calm     76 % 0.00 in 0.0 W/m2 CLR
02:45 15.6 °F 9.4 °F 30.64 in Calm     76 % 0.00 in 0.0 W/m2 CLR
02:50 15.5 °F 9.3 °F 30.65 in Calm     76 % 0.00 in 0.0 W/m2 CLR
02:55 15.5 °F 9.3 °F 30.65 in Calm     76 % 0.00 in 0.0 W/m2 CLR
03:00 15.4 °F 9.5 °F 30.64 in Calm     77 % 0.00 in 0.0 W/m2 CLR
03:05 15.2 °F 9.3 °F 30.63 in Calm     77 % 0.00 in 0.0 W/m2 CLR
03:10 15.4 °F 9.5 °F 30.62 in Calm     77 % 0.00 in 0.0 W/m2 CLR
03:15 15.8 °F 9.9 °F 30.62 in SSW 0.1 mph 1.0 mph 77 % 0.00 in 0.0 W/m2 CLR
03:20 16.2 °F 10.3 °F 30.61 in Calm     77 % 0.00 in 0.0 W/m2 CLR
03:25 15.9 °F 9.7 °F 30.61 in Calm     76 % 0.00 in 0.0 W/m2 CLR
03:30 15.7 °F 9.5 °F 30.62 in Calm     76 % 0.00 in 0.0 W/m2 CLR
03:35 15.5 °F 9.3 °F 30.62 in Calm     76 % 0.00 in 0.0 W/m2 CLR
03:40 15.4 °F 9.2 °F 30.62 in Calm     76 % 0.00 in 0.0 W/m2 CLR
03:45 15.1 °F 8.9 °F 30.62 in Calm     76 % 0.00 in 0.0 W/m2 CLR
03:50 14.7 °F 8.5 °F 30.63 in Calm     76 % 0.00 in 0.0 W/m2 CLR
03:55 14.7 °F 8.8 °F 30.63 in Calm     77 % 0.00 in 0.0 W/m2 CLR
04:00 14.5 °F 8.6 °F 30.63 in Calm     77 % 0.00 in 0.0 W/m2 CLR
04:05 14.1 °F 8.2 °F 30.63 in Calm     77 % 0.00 in 0.0 W/m2 CLR
04:10 13.8 °F 7.9 °F 30.62 in Calm     77 % 0.00 in 0.0 W/m2 CLR
04:15 13.8 °F 8.2 °F 30.62 in Calm     78 % 0.00 in 0.0 W/m2 CLR
04:20 13.9 °F 8.3 °F 30.62 in Calm     78 % 0.00 in 0.0 W/m2 CLR
04:25 13.8 °F 8.2 °F 30.62 in Calm     78 % 0.00 in 0.0 W/m2 CLR
04:30 13.7 °F 8.4 °F 30.62 in Calm     79 % 0.00 in 0.0 W/m2 CLR
04:36 13.9 °F 8.6 °F 30.62 in Calm     79 % 0.00 in 0.0 W/m2 CLR
04:41 13.8 °F 8.5 °F 30.62 in Calm     79 % 0.00 in 0.0 W/m2 CLR
04:46 13.7 °F 8.4 °F 30.62 in Calm     79 % 0.00 in 0.0 W/m2 CLR
04:51 13.5 °F 8.5 °F 30.62 in Calm     80 % 0.00 in 0.0 W/m2 CLR
04:56 13.7 °F 8.7 °F 30.62 in Calm     80 % 0.00 in 0.0 W/m2 CLR
05:01 13.5 °F 8.5 °F 30.62 in Calm     80 % 0.00 in 0.0 W/m2 CLR
05:06 13.5 °F 8.8 °F 30.61 in Calm     81 % 0.00 in 0.0 W/m2 CLR
05:11 13.7 °F 9.0 °F 30.61 in Calm     81 % 0.00 in 0.0 W/m2 CLR
05:16 14.0 °F 9.2 °F 30.62 in Calm     81 % 0.00 in 0.0 W/m2 CLR
05:21 14.3 °F 9.5 °F 30.62 in Calm     81 % 0.00 in 0.0 W/m2 CLR
05:26 14.3 °F 9.5 °F 30.62 in Calm     81 % 0.00 in 0.0 W/m2 CLR
05:31 14.2 °F 9.4 °F 30.62 in Calm     81 % 0.00 in 0.0 W/m2 CLR
05:36 14.1 °F 9.3 °F 30.61 in Calm     81 % 0.00 in 0.0 W/m2 CLR
05:41 13.9 °F 9.1 °F 30.61 in Calm     81 % 0.00 in 0.0 W/m2 CLR
05:46 14.1 °F 9.3 °F 30.61 in Calm     81 % 0.00 in 0.0 W/m2 CLR
05:51 14.3 °F 9.5 °F 30.62 in Calm     81 % 0.00 in 0.0 W/m2 CLR
05:56 14.5 °F 9.7 °F 30.61 in Calm     81 % 0.00 in 0.0 W/m2 CLR
06:01 14.9 °F 10.4 °F 30.61 in Calm     82 % 0.00 in 0.0 W/m2 CLR
06:06 15.3 °F 10.5 °F 30.61 in Calm     81 % 0.00 in 0.0 W/m2 CLR
06:11 15.6 °F 10.8 °F 30.61 in Calm     81 % 0.00 in 0.0 W/m2 CLR
06:16 15.8 °F 10.7 °F 30.61 in Calm     80 % 0.00 in 0.0 W/m2 CLR
06:21 16.0 °F 10.9 °F 30.61 in Calm     80 % 0.00 in 0.0 W/m2 CLR
06:26 16.2 °F 11.1 °F 30.61 in Calm     80 % 0.00 in 0.0 W/m2 CLR
06:31 16.3 °F 10.9 °F 30.62 in Calm     79 % 0.00 in 0.0 W/m2 CLR
06:36 16.5 °F 11.1 °F 30.62 in Calm     79 % 0.00 in 0.0 W/m2 CLR
06:41 16.7 °F 11.0 °F 30.62 in Calm     78 % 0.00 in 0.0 W/m2 CLR
06:46 16.7 °F 11.0 °F 30.62 in Calm     78 % 0.00 in 0.0 W/m2 CLR
06:51 16.9 °F 11.2 °F 30.62 in Calm     78 % 0.00 in 0.0 W/m2 CLR
06:56 17.0 °F 11.3 °F 30.62 in Calm     78 % 0.00 in 0.0 W/m2 CLR
07:06 17.3 °F 11.6 °F 30.62 in Calm     78 % 0.00 in 0.0 W/m2 OVC
07:11 17.3 °F 11.3 °F 30.62 in Calm     77 % 0.00 in 0.0 W/m2 OVC
07:16 17.4 °F 11.4 °F 30.63 in Calm     77 % 0.00 in 0.0 W/m2 OVC
07:21 17.4 °F 11.4 °F 30.63 in Calm     77 % 0.00 in 0.0 W/m2 OVC
07:26 17.5 °F 11.5 °F 30.62 in Calm     77 % 0.00 in 0.0 W/m2 OVC
07:31 17.6 °F 11.6 °F 30.62 in Calm     77 % 0.00 in 0.0 W/m2 OVC
07:36 17.7 °F 11.7 °F 30.62 in Calm     77 % 0.00 in 7.0 W/m2 OVC
07:46 18.1 °F 12.4 °F 30.62 in South 1.5 mph 4.0 mph 78 % 0.00 in 12.0 W/m2 CLR
07:47 18.1 °F 12.4 °F 30.62 in South 1.6 mph 3.5 mph 78 % 0.00 in 12.0 W/m2 CLR
07:52 18.3 °F 12.6 °F 30.62 in Calm   2.3 mph 78 % 0.00 in 18.0 W/m2 CLR
07:57 18.5 °F 12.8 °F 30.62 in Calm   2.3 mph 78 % 0.00 in 25.0 W/m2 CLR
08:02 18.6 °F 12.9 °F 30.62 in Calm     78 % 0.00 in 28.0 W/m2 CLR
08:07 18.7 °F 13.0 °F 30.62 in Calm     78 % 0.00 in 35.0 W/m2 CLR
08:12 18.7 °F 13.0 °F 30.62 in Calm     78 % 0.00 in 42.0 W/m2 CLR
08:17 18.6 °F 12.9 °F 30.62 in Calm     78 % 0.00 in 46.0 W/m2 CLR
08:22 18.8 °F 13.1 °F 30.62 in Calm     78 % 0.00 in 49.0 W/m2 CLR
08:27 18.9 °F 13.2 °F 30.62 in Calm     78 % 0.00 in 54.0 W/m2 CLR
08:32 19.1 °F 13.4 °F 30.62 in South 0.5 mph 1.2 mph 78 % 0.00 in 67.0 W/m2 CLR
08:37 19.3 °F 13.6 °F 30.62 in Calm     78 % 0.00 in 84.0 W/m2 CLR
08:42 19.4 °F 13.7 °F 30.62 in South 0.2 mph 1.2 mph 78 % 0.00 in 100.0 W/m2 CLR
08:47 19.6 °F 13.9 °F 30.61 in South 1.9 mph 2.3 mph 78 % 0.00 in 125.0 W/m2 CLR
08:52 19.7 °F 14.0 °F 30.61 in South 0.6 mph 2.3 mph 78 % 0.00 in 130.0 W/m2 CLR
08:57 20.0 °F 14.2 °F 30.62 in South 1.3 mph 2.3 mph 78 % 0.00 in 144.0 W/m2 CLR
09:02 20.3 °F 14.2 °F 30.62 in Calm     77 % 0.00 in 160.0 W/m2 CLR
09:07 20.6 °F 14.5 °F 30.61 in Calm   1.0 mph 77 % 0.00 in 169.0 W/m2 CLR
09:12 20.6 °F 14.5 °F 30.61 in South 1.2 mph 2.3 mph 77 % 0.00 in 151.0 W/m2 CLR
09:17 20.9 °F 14.8 °F 30.62 in South 0.1 mph 2.3 mph 77 % 0.00 in 130.0 W/m2 CLR
09:22 21.2 °F 15.1 °F 30.61 in South 1.3 mph 2.3 mph 77 % 0.00 in 109.0 W/m2 FEW
09:27 21.4 °F 15.0 °F 30.61 in SE 0.7 mph 2.3 mph 76 % 0.00 in 100.0 W/m2 SCT
09:32 21.5 °F 15.1 °F 30.61 in SE 1.2 mph 3.5 mph 76 % 0.00 in 107.0 W/m2 SCT
09:37 21.7 °F 15.3 °F 30.61 in SE 2.0 mph 3.5 mph 76 % 0.00 in 107.0 W/m2 SCT
09:42 21.8 °F 15.1 °F 30.61 in SE 0.5 mph 2.0 mph 75 % 0.00 in 116.0 W/m2 SCT
09:47 22.1 °F 15.4 °F 30.62 in Calm   2.3 mph 75 % 0.00 in 127.0 W/m2 SCT
09:52 22.5 °F 15.8 °F 30.62 in SSW 4.3 mph 5.8 mph 75 % 0.00 in 134.0 W/m2 SCT
09:57 22.7 °F 15.7 °F 30.62 in SSW 5.9 mph 8.1 mph 74 % 0.00 in 127.0 W/m2 SCT
10:02 22.6 °F 14.9 °F 30.62 in South 2.7 mph 4.6 mph 72 % 0.00 in 127.0 W/m2 SCT
10:07 22.8 °F 15.1 °F 30.62 in South 1.7 mph 2.3 mph 72 % 0.00 in 139.0 W/m2 SCT
10:12 22.8 °F 14.8 °F 30.63 in South 0.8 mph 3.5 mph 71 % 0.00 in 151.0 W/m2 SCT
10:17 23.2 °F 15.5 °F 30.63 in South 0.7 mph 3.0 mph 72 % 0.00 in 171.0 W/m2 SCT
10:27 23.6 °F 15.6 °F 30.62 in South 1.4 mph 3.5 mph 71 % 0.00 in 199.0 W/m2 FEW
10:32 23.5 °F 15.5 °F 30.62 in Calm   1.2 mph 71 % 0.00 in 174.0 W/m2 SCT
10:37 23.7 °F 15.7 °F 30.62 in South 0.3 mph 2.3 mph 71 % 0.00 in 186.0 W/m2 SCT
10:42 24.0 °F 16.0 °F 30.62 in South 0.8 mph 1.2 mph 71 % 0.00 in 195.0 W/m2 FEW
10:47 24.5 °F 15.8 °F 30.62 in South 4.8 mph 5.0 mph 69 % 0.00 in 171.0 W/m2 SCT
10:53 24.8 °F 15.7 °F 30.62 in SSW 6.6 mph 9.2 mph 68 % 0.00 in 176.0 W/m2 SCT
10:58 25.0 °F 15.6 °F 30.61 in South 4.8 mph 5.8 mph 67 % 0.00 in 188.0 W/m2 SCT
11:03 25.0 °F 15.6 °F 30.61 in South 3.0 mph 3.5 mph 67 % 0.00 in 179.0 W/m2 SCT
11:08 25.2 °F 15.8 °F 30.61 in South 3.2 mph 5.0 mph 67 % 0.00 in 172.0 W/m2 SCT
11:13 25.4 °F 15.6 °F 30.60 in South 4.1 mph 5.8 mph 66 % 0.00 in 174.0 W/m2 SCT
11:18 25.5 °F 15.7 °F 30.60 in SSW 6.1 mph 7.0 mph 66 % 0.00 in 163.0 W/m2 SCT
11:23 25.4 °F 15.3 °F 30.59 in South 3.4 mph 6.9 mph 65 % 0.00 in 160.0 W/m2 BKN
11:28 25.3 °F 15.2 °F 30.59 in South 4.5 mph 8.1 mph 65 % 0.00 in 186.0 W/m2 SCT
11:33 25.3 °F 15.2 °F 30.58 in South 4.6 mph 5.8 mph 65 % 0.00 in 176.0 W/m2 SCT
11:38 25.4 °F 14.9 °F 30.57 in South 5.7 mph 7.0 mph 64 % 0.00 in 167.0 W/m2 SCT
11:43 25.6 °F 15.5 °F 30.57 in South 4.6 mph 5.0 mph 65 % 0.00 in 174.0 W/m2 SCT
11:48 25.8 °F 15.6 °F 30.57 in South 4.9 mph 9.2 mph 65 % 0.00 in 155.0 W/m2 BKN
11:58 26.0 °F 15.5 °F 30.55 in South 1.6 mph 3.5 mph 64 % 0.00 in 107.0 W/m2 BKN
12:03 26.0 °F 15.5 °F 30.55 in SSE 5.0 mph 5.8 mph 64 % 0.00 in 123.0 W/m2 BKN
12:08 26.0 °F 14.8 °F 30.54 in South 6.1 mph 8.1 mph 62 % 0.00 in 148.0 W/m2 BKN
12:13 26.3 °F 15.4 °F 30.54 in South 4.1 mph 8.1 mph 63 % 0.00 in 156.0 W/m2 BKN
12:18 26.5 °F 16.0 °F 30.53 in SSE 2.9 mph 4.0 mph 64 % 0.00 in 153.0 W/m2 BKN
12:23 26.6 °F 16.1 °F 30.53 in South 3.3 mph 5.0 mph 64 % 0.00 in 146.0 W/m2 BKN
12:28 26.2 °F 15.7 °F 30.52 in SSE 2.4 mph 6.9 mph 64 % 0.00 in 123.0 W/m2 BKN
12:33 26.2 °F 15.7 °F 30.51 in SE 2.6 mph 3.5 mph 64 % 0.00 in 118.0 W/m2 BKN
12:38 26.3 °F 15.8 °F 30.51 in East 1.9 mph 3.5 mph 64 % 0.00 in 135.0 W/m2 BKN
12:43 26.5 °F 16.0 °F 30.49 in ESE 2.0 mph 3.5 mph 64 % 0.00 in 148.0 W/m2 BKN
12:48 26.6 °F 16.1 °F 30.49 in ESE 1.7 mph 4.0 mph 64 % 0.00 in 135.0 W/m2 BKN
12:53 26.7 °F 16.1 °F 30.48 in ESE 2.5 mph 3.5 mph 64 % 0.00 in 109.0 W/m2 BKN
12:58 27.0 °F 16.4 °F 30.48 in SE 2.5 mph 3.5 mph 64 % 0.00 in 118.0 W/m2 BKN
13:03 27.2 °F 16.6 °F 30.48 in SE 1.1 mph 3.5 mph 64 % 0.00 in 121.0 W/m2 BKN
13:08 27.7 °F 16.7 °F 30.48 in SE 0.1 mph 1.2 mph 63 % 0.00 in 132.0 W/m2 BKN
13:13 27.8 °F 16.1 °F 30.49 in Calm   1.2 mph 61 % 0.00 in 128.0 W/m2 BKN
13:18 28.0 °F 15.9 °F 30.48 in SE 2.3 mph 3.5 mph 60 % 0.00 in 130.0 W/m2 BKN
13:23 28.1 °F 16.0 °F 30.48 in SSE 3.4 mph 4.6 mph 60 % 0.00 in 98.0 W/m2 BKN
13:28 28.1 °F 16.0 °F 30.48 in SE 1.9 mph 3.5 mph 60 % 0.00 in 97.0 W/m2 BKN
13:33 27.8 °F 16.1 °F 30.48 in SSE 3.8 mph 5.8 mph 61 % 0.00 in 76.0 W/m2 OVC
13:38 27.8 °F 16.5 °F 30.48 in South 4.4 mph 5.8 mph 62 % 0.00 in 72.0 W/m2 OVC
13:43 27.9 °F 17.3 °F 30.48 in SSE 5.0 mph 9.2 mph 64 % 0.00 in 62.0 W/m2 OVC
13:48 27.5 °F 17.6 °F 30.48 in SE 8.2 mph 13.8 mph 66 % 0.00 in 70.0 W/m2 OVC
13:53 27.3 °F 18.1 °F 30.48 in South 3.1 mph 5.8 mph 68 % 0.00 in 56.0 W/m2 OVC
13:58 27.1 °F 18.3 °F 30.46 in ESE 3.6 mph 8.1 mph 69 % 0.00 in 69.0 W/m2 OVC
14:03 27.1 °F 18.6 °F 30.47 in South 2.4 mph 4.6 mph 70 % 0.00 in 98.0 W/m2 BKN
14:08 27.4 °F 18.9 °F 30.47 in South 2.3 mph 3.5 mph 70 % 0.00 in 113.0 W/m2 BKN
14:13 27.5 °F 19.0 °F 30.47 in South 0.4 mph 2.3 mph 70 % 0.00 in 102.0 W/m2 BKN
14:18 27.7 °F 19.2 °F 30.47 in SSE 2.9 mph 4.0 mph 70 % 0.00 in 105.0 W/m2 BKN
14:23 27.8 °F 18.9 °F 30.46 in Calm   3.5 mph 69 % 0.00 in 95.0 W/m2 BKN
14:28 28.0 °F 19.1 °F 30.46 in SSE 2.2 mph 4.0 mph 69 % 0.00 in 90.0 W/m2 BKN
14:33 28.1 °F 18.9 °F 30.46 in SE 0.2 mph 3.5 mph 68 % 0.00 in 88.0 W/m2 BKN
14:38 28.4 °F 18.8 °F 30.45 in SE 1.8 mph 3.5 mph 67 % 0.00 in 74.0 W/m2 BKN
14:43 28.6 °F 19.0 °F 30.45 in SE 1.4 mph 3.0 mph 67 % 0.00 in 62.0 W/m2 OVC
14:48 28.7 °F 18.8 °F 30.45 in SSE 2.4 mph 4.0 mph 66 % 0.00 in 60.0 W/m2 OVC
14:53 28.9 °F 18.6 °F 30.45 in SE 1.9 mph 7.0 mph 65 % 0.00 in 40.0 W/m2 OVC
14:58 29.0 °F 18.3 °F 30.45 in SSE 2.2 mph 4.6 mph 64 % 0.00 in 30.0 W/m2 OVC
15:03 29.1 °F 18.1 °F 30.46 in South 0.1 mph 2.3 mph 63 % 0.00 in 32.0 W/m2 OVC
15:08 29.3 °F 18.3 °F 30.46 in South 1.4 mph 3.5 mph 63 % 0.00 in 42.0 W/m2 OVC
15:13 29.4 °F 18.0 °F 30.46 in South 1.9 mph 3.0 mph 62 % 0.00 in 54.0 W/m2 BKN
15:18 29.6 °F 18.2 °F 30.46 in South 0.4 mph 1.2 mph 62 % 0.00 in 72.0 W/m2 BKN
15:23 29.8 °F 18.0 °F 30.46 in South 1.1 mph 3.5 mph 61 % 0.00 in 98.0 W/m2 SCT
15:28 29.9 °F 17.7 °F 30.46 in SSE 3.2 mph 4.6 mph 60 % 0.00 in 97.0 W/m2 CLR
15:34 30.2 °F 18.0 °F 30.45 in South 6.0 mph 8.1 mph 60 % 0.00 in 46.0 W/m2 BKN
15:39 30.2 °F 17.2 °F 30.45 in SSE 2.7 mph 4.0 mph 58 % 0.00 in 32.0 W/m2 OVC
15:44 30.2 °F 16.8 °F 30.44 in SSE 2.1 mph 6.9 mph 57 % 0.00 in 30.0 W/m2 OVC
15:49 30.3 °F 16.9 °F 30.44 in SE 1.5 mph 3.5 mph 57 % 0.00 in 28.0 W/m2 OVC
15:54 30.3 °F 16.9 °F 30.44 in SSE 1.5 mph 2.3 mph 57 % 0.00 in 25.0 W/m2 OVC
15:59 30.4 °F 16.6 °F 30.43 in SSE 2.4 mph 4.6 mph 56 % 0.00 in 19.0 W/m2 OVC
16:04 30.5 °F 16.7 °F 30.43 in SE 1.9 mph 3.5 mph 56 % 0.00 in 16.0 W/m2 OVC
16:09 30.5 °F 16.7 °F 30.43 in South 3.3 mph 5.8 mph 56 % 0.00 in 14.0 W/m2 OVC
16:14 30.5 °F 16.7 °F 30.43 in SSE 1.6 mph 3.5 mph 56 % 0.00 in 11.0 W/m2 OVC
16:19 30.6 °F 16.7 °F 30.43 in SSE 1.8 mph 3.5 mph 56 % 0.00 in 9.0 W/m2 OVC
16:24 30.7 °F 16.4 °F 30.42 in South 2.7 mph 7.0 mph 55 % 0.00 in 11.0 W/m2 BKN
16:29 30.8 °F 16.5 °F 30.42 in South 1.6 mph 3.5 mph 55 % 0.00 in 7.0 W/m2 BKN
16:34 30.8 °F 16.5 °F 30.41 in South 2.3 mph 5.0 mph 55 % 0.00 in 5.0 W/m2 OVC
16:39 30.9 °F 16.6 °F 30.41 in South 2.6 mph 5.0 mph 55 % 0.00 in 0.0 W/m2 OVC
16:44 31.0 °F 16.3 °F 30.41 in SE 2.5 mph 4.0 mph 54 % 0.00 in 0.0 W/m2 OVC
16:49 31.1 °F 16.8 °F 30.41 in SSW 3.5 mph 6.0 mph 55 % 0.00 in 0.0 W/m2 OVC
16:54 31.2 °F 16.9 °F 30.40 in SSE 4.5 mph 6.9 mph 55 % 0.00 in 0.0 W/m2 OVC
16:59 31.2 °F 16.9 °F 30.39 in SE 2.5 mph 4.6 mph 55 % 0.00 in 0.0 W/m2 OVC
17:04 31.3 °F 17.4 °F 30.39 in SE 1.2 mph 2.3 mph 56 % 0.00 in 0.0 W/m2 CLR
17:09 31.4 °F 17.5 °F 30.39 in SE 1.8 mph 4.6 mph 56 % 0.00 in 0.0 W/m2 CLR
17:14 31.5 °F 17.6 °F 30.39 in South 1.7 mph 6.9 mph 56 % 0.00 in 0.0 W/m2 CLR
17:19 31.6 °F 17.7 °F 30.39 in Calm   1.2 mph 56 % 0.00 in 0.0 W/m2 CLR
17:24 31.7 °F 17.8 °F 30.39 in SSE 2.9 mph 4.6 mph 56 % 0.00 in 0.0 W/m2 CLR
17:29 31.8 °F 17.9 °F 30.39 in Calm     56 % 0.00 in 0.0 W/m2 CLR
17:34 31.8 °F 17.9 °F 30.39 in SSE 1.2 mph 3.5 mph 56 % 0.00 in 0.0 W/m2 CLR
17:39 31.9 °F 18.0 °F 30.39 in Calm     56 % 0.00 in 0.0 W/m2 CLR
17:44 31.9 °F 18.0 °F 30.39 in SSE 0.2 mph 4.0 mph 56 % 0.00 in 0.0 W/m2 CLR
17:49 32.0 °F 18.1 °F 30.38 in South 2.6 mph 3.5 mph 56 % 0.00 in 0.0 W/m2 CLR
17:55 32.1 °F 17.7 °F 30.38 in SSE 0.9 mph 2.3 mph 55 % 0.00 in 0.0 W/m2 CLR
18:00 32.2 °F 17.4 °F 30.38 in SE 0.7 mph 2.3 mph 54 % 0.00 in 0.0 W/m2 CLR
18:05 32.4 °F 17.6 °F 30.37 in South 6.5 mph 9.2 mph 54 % 0.00 in 0.0 W/m2 CLR
18:10 32.6 °F 17.3 °F 30.37 in South 2.1 mph 3.5 mph 53 % 0.00 in 0.0 W/m2 CLR
18:15 32.7 °F 17.0 °F 30.36 in SSE 2.2 mph 4.6 mph 52 % 0.00 in 0.0 W/m2 CLR
18:20 32.7 °F 17.0 °F 30.36 in SSE 3.0 mph 5.0 mph 52 % 0.00 in 0.0 W/m2 CLR
18:25 32.8 °F 17.1 °F 30.36 in SSE 1.0 mph 6.0 mph 52 % 0.00 in 0.0 W/m2 CLR
18:30 32.8 °F 17.1 °F 30.36 in South 1.8 mph 3.5 mph 52 % 0.00 in 0.0 W/m2 CLR
18:35 32.8 °F 16.2 °F 30.36 in SSE 3.3 mph 6.9 mph 50 % 0.00 in 0.0 W/m2 CLR
18:40 32.9 °F 16.3 °F 30.36 in South 7.0 mph 8.0 mph 50 % 0.00 in 0.0 W/m2 CLR
18:45 33.0 °F 16.4 °F 30.36 in SSW 2.1 mph 3.5 mph 50 % 0.00 in 0.0 W/m2 CLR
18:50 32.9 °F 16.3 °F 30.36 in South 1.2 mph 3.0 mph 50 % 0.00 in 0.0 W/m2 CLR
18:55 32.9 °F 15.8 °F 30.36 in SSW 1.4 mph 2.3 mph 49 % 0.00 in 0.0 W/m2 CLR
19:00 33.0 °F 15.9 °F 30.35 in South 4.7 mph 7.0 mph 49 % 0.00 in 0.0 W/m2 CLR
19:05 33.0 °F 15.9 °F 30.34 in South 1.6 mph 3.5 mph 49 % 0.00 in 0.0 W/m2 CLR
19:10 33.1 °F 15.5 °F 30.34 in SSW 3.9 mph 5.8 mph 48 % 0.00 in 0.0 W/m2 CLR
19:15 33.2 °F 15.6 °F 30.33 in South 3.4 mph 4.6 mph 48 % 0.00 in 0.0 W/m2 CLR
19:20 33.2 °F 15.6 °F 30.33 in SSW 4.4 mph 6.9 mph 48 % 0.00 in 0.0 W/m2 CLR
19:25 33.3 °F 15.2 °F 30.33 in South 3.7 mph 6.9 mph 47 % 0.00 in 0.0 W/m2 CLR
19:30 33.3 °F 15.2 °F 30.33 in South 5.7 mph 8.1 mph 47 % 0.00 in 0.0 W/m2 CLR
19:35 33.5 °F 15.4 °F 30.32 in SSE 4.6 mph 9.2 mph 47 % 0.00 in 0.0 W/m2 CLR
19:40 33.6 °F 15.5 °F 30.32 in SE 3.7 mph 5.8 mph 47 % 0.00 in 0.0 W/m2 CLR
19:45 33.6 °F 15.5 °F 30.32 in SSW 0.8 mph 5.0 mph 47 % 0.00 in 0.0 W/m2 CLR
19:50 33.7 °F 15.6 °F 30.32 in SW 4.8 mph 9.2 mph 47 % 0.00 in 0.0 W/m2 CLR
19:55 33.8 °F 15.7 °F 30.32 in SSW 5.4 mph 8.1 mph 47 % 0.00 in 0.0 W/m2 CLR
20:00 33.9 °F 15.3 °F 30.31 in South 2.9 mph 5.8 mph 46 % 0.00 in 0.0 W/m2 CLR
20:05 33.9 °F 15.8 °F 30.31 in South 0.9 mph 4.6 mph 47 % 0.00 in 0.0 W/m2 CLR
20:10 33.8 °F 15.7 °F 30.30 in SSW 2.9 mph 3.5 mph 47 % 0.00 in 0.0 W/m2 CLR
20:15 33.8 °F 15.7 °F 30.29 in South 3.2 mph 4.6 mph 47 % 0.00 in 0.0 W/m2 CLR
20:20 33.8 °F 15.7 °F 30.29 in SSW 3.3 mph 6.9 mph 47 % 0.00 in 0.0 W/m2 CLR
20:25 33.9 °F 15.8 °F 30.29 in SW 3.2 mph 6.9 mph 47 % 0.00 in 0.0 W/m2 CLR
20:30 34.0 °F 15.9 °F 30.28 in SSW 4.1 mph 5.8 mph 47 % 0.00 in 0.0 W/m2 CLR
20:35 34.1 °F 15.9 °F 30.28 in SSW 4.3 mph 8.1 mph 47 % 0.00 in 0.0 W/m2 CLR
20:41 34.3 °F 15.6 °F 30.27 in SSW 5.4 mph 9.2 mph 46 % 0.00 in 0.0 W/m2 CLR
20:46 34.4 °F 15.7 °F 30.27 in South 2.6 mph 6.9 mph 46 % 0.00 in 0.0 W/m2 CLR
20:51 34.4 °F 16.2 °F 30.26 in South 6.2 mph 9.0 mph 47 % 0.00 in 0.0 W/m2 CLR
20:56 34.5 °F 16.8 °F 30.25 in South 2.5 mph 4.6 mph 48 % 0.00 in 0.0 W/m2 CLR
21:01 34.4 °F 16.7 °F 30.25 in South 3.5 mph 4.0 mph 48 % 0.00 in 0.0 W/m2 CLR
21:06 34.6 °F 16.9 °F 30.25 in South 5.5 mph 9.2 mph 48 % 0.00 in 0.0 W/m2 CLR
21:11 34.8 °F 17.1 °F 30.25 in SSW 2.4 mph 6.9 mph 48 % 0.00 in 0.0 W/m2 CLR
21:16 34.8 °F 17.1 °F 30.25 in SW 6.4 mph 9.2 mph 48 % 0.00 in 0.0 W/m2 CLR
21:21 35.0 °F 17.3 °F 30.25 in SSW 5.7 mph 8.1 mph 48 % 0.00 in 0.0 W/m2 CLR
21:26 35.0 °F 17.3 °F 30.25 in SSW 3.5 mph 8.1 mph 48 % 0.00 in 0.0 W/m2 CLR
21:31 35.1 °F 17.4 °F 30.24 in South 5.0 mph 6.9 mph 48 % 0.00 in 0.0 W/m2 CLR
21:36 35.1 °F 17.4 °F 30.25 in SSW 6.2 mph 11.5 mph 48 % 0.00 in 0.0 W/m2 CLR
21:41 35.2 °F 17.4 °F 30.24 in SSW 6.6 mph 10.4 mph 48 % 0.00 in 0.0 W/m2 CLR
21:46 35.3 °F 17.5 °F 30.24 in South 5.5 mph 10.4 mph 48 % 0.00 in 0.0 W/m2 CLR
21:51 35.4 °F 17.6 °F 30.24 in SSW 8.9 mph 11.5 mph 48 % 0.00 in 0.0 W/m2 CLR
21:56 35.4 °F 17.6 °F 30.24 in SSW 5.0 mph 8.1 mph 48 % 0.00 in 0.0 W/m2 CLR
22:01 35.4 °F 17.6 °F 30.24 in SSW 5.8 mph 8.0 mph 48 % 0.00 in 0.0 W/m2 CLR
22:07 35.6 °F 17.8 °F 30.24 in SSW 3.4 mph 5.8 mph 48 % 0.00 in 0.0 W/m2 CLR
22:12 35.6 °F 17.8 °F 30.24 in SSW 3.4 mph 5.8 mph 48 % 0.00 in 0.0 W/m2 CLR
22:17 35.6 °F 18.3 °F 30.24 in SSW 2.9 mph 4.6 mph 49 % 0.00 in 0.0 W/m2 CLR
22:22 35.5 °F 19.1 °F 30.24 in SSW 5.5 mph 6.0 mph 51 % 0.00 in 0.0 W/m2 CLR
22:27 35.6 °F 19.7 °F 30.24 in SSW 3.4 mph 4.6 mph 52 % 0.00 in 0.0 W/m2 CLR
22:32 35.6 °F 20.1 °F 30.24 in SSW 3.6 mph 5.8 mph 53 % 0.00 in 0.0 W/m2 CLR
22:37 35.6 °F 20.6 °F 30.23 in South 3.3 mph 5.8 mph 54 % 0.00 in 0.0 W/m2 CLR
22:42 35.6 °F 20.6 °F 30.24 in SSW 3.2 mph 8.1 mph 54 % 0.00 in 0.0 W/m2 CLR
22:47 35.6 °F 21.4 °F 30.23 in SSW 2.8 mph 3.5 mph 56 % 0.00 in 0.0 W/m2 CLR
22:52 35.5 °F 21.8 °F 30.23 in SSW 1.3 mph 3.5 mph 57 % 0.00 in 0.0 W/m2 CLR
22:57 35.1 °F 22.6 °F 30.22 in Calm     60 % 0.00 in 0.0 W/m2 CLR
23:02 34.8 °F 23.5 °F 30.22 in SSW 1.4 mph 3.5 mph 63 % 0.01 in 0.0 W/m2 RA
23:07 34.6 °F 24.0 °F 30.22 in SSW 1.1 mph 3.5 mph 65 % 0.01 in 0.0 W/m2 RA
23:12 34.5 °F 24.7 °F 30.22 in Calm     67 % 0.01 in 0.0 W/m2
23:17 34.2 °F 25.1 °F 30.22 in Calm     69 % 0.01 in 0.0 W/m2
23:22 34.0 °F 25.2 °F 30.22 in SSW 0.3 mph 1.2 mph 70 % 0.01 in 0.0 W/m2
23:27 34.2 °F 25.8 °F 30.21 in SW 0.3 mph 3.0 mph 71 % 0.02 in 0.0 W/m2 RA
23:32 34.2 °F 25.8 °F 30.21 in SW 1.7 mph 3.5 mph 71 % 0.02 in 0.0 W/m2 RA
23:37 34.2 °F 26.1 °F 30.21 in WSW 0.2 mph 2.3 mph 72 % 0.02 in 0.0 W/m2
23:42 34.1 °F 26.3 °F 30.20 in WSW 1.2 mph 3.5 mph 73 % 0.02 in 0.0 W/m2
23:47 34.1 °F 26.7 °F 30.20 in WSW 0.4 mph 2.3 mph 74 % 0.02 in 0.0 W/m2
23:52 34.0 °F 26.9 °F 30.19 in Calm     75 % 0.02 in 0.0 W/m2
23:57 33.9 °F 27.1 °F 30.20 in Calm     76 % 0.03 in 0.0 W/m2 RA
Air Products Campus Weather
Compliments of Weather Underground - 3.25 mb